sensor_id;sensor_type;location;lat;lon;timestamp;P1;durP1;ratioP1;P2;durP2;ratioP2
16442;SDS011;8331;51.654;14.376;2023-08-20T00:00:19;15.60;;;14.60;;
16442;SDS011;8331;51.654;14.376;2023-08-20T00:02:46;15.40;;;14.20;;
16442;SDS011;8331;51.654;14.376;2023-08-20T00:05:17;15.27;;;14.30;;
16442;SDS011;8331;51.654;14.376;2023-08-20T00:07:43;16.20;;;15.10;;
16442;SDS011;8331;51.654;14.376;2023-08-20T00:10:10;15.03;;;14.03;;
16442;SDS011;8331;51.654;14.376;2023-08-20T00:12:37;15.80;;;14.60;;
16442;SDS011;8331;51.654;14.376;2023-08-20T00:15:04;16.60;;;15.20;;
16442;SDS011;8331;51.654;14.376;2023-08-20T00:17:32;14.20;;;13.30;;
16442;SDS011;8331;51.654;14.376;2023-08-20T00:19:58;16.03;;;14.83;;
16442;SDS011;8331;51.654;14.376;2023-08-20T00:22:25;15.83;;;14.83;;
16442;SDS011;8331;51.654;14.376;2023-08-20T00:24:53;15.17;;;14.10;;
16442;SDS011;8331;51.654;14.376;2023-08-20T00:27:20;15.50;;;14.50;;
16442;SDS011;8331;51.654;14.376;2023-08-20T00:29:47;15.87;;;14.77;;
16442;SDS011;8331;51.654;14.376;2023-08-20T00:32:14;16.30;;;15.10;;
16442;SDS011;8331;51.654;14.376;2023-08-20T00:34:41;16.07;;;14.87;;
16442;SDS011;8331;51.654;14.376;2023-08-20T00:37:08;16.37;;;15.23;;
16442;SDS011;8331;51.654;14.376;2023-08-20T00:39:34;15.70;;;14.50;;
16442;SDS011;8331;51.654;14.376;2023-08-20T00:42:01;16.90;;;15.40;;
16442;SDS011;8331;51.654;14.376;2023-08-20T00:44:28;15.63;;;14.47;;
16442;SDS011;8331;51.654;14.376;2023-08-20T00:46:55;16.13;;;15.03;;
16442;SDS011;8331;51.654;14.376;2023-08-20T00:49:22;17.13;;;15.63;;
16442;SDS011;8331;51.654;14.376;2023-08-20T00:51:49;15.40;;;14.40;;
16442;SDS011;8331;51.654;14.376;2023-08-20T00:54:16;15.83;;;14.73;;
16442;SDS011;8331;51.654;14.376;2023-08-20T00:56:43;15.83;;;14.57;;
16442;SDS011;8331;51.654;14.376;2023-08-20T00:59:11;16.23;;;14.90;;
16442;SDS011;8331;51.654;14.376;2023-08-20T01:01:38;15.87;;;14.47;;
16442;SDS011;8331;51.654;14.376;2023-08-20T01:04:04;16.07;;;14.67;;
16442;SDS011;8331;51.654;14.376;2023-08-20T01:09:34;16.53;;;15.33;;
16442;SDS011;8331;51.654;14.376;2023-08-20T01:12:04;16.10;;;14.80;;
16442;SDS011;8331;51.654;14.376;2023-08-20T01:14:32;15.70;;;14.37;;
16442;SDS011;8331;51.654;14.376;2023-08-20T01:16:59;16.77;;;15.57;;
16442;SDS011;8331;51.654;14.376;2023-08-20T01:19:25;15.27;;;14.07;;
16442;SDS011;8331;51.654;14.376;2023-08-20T01:29:49;16.47;;;15.17;;
16442;SDS011;8331;51.654;14.376;2023-08-20T01:32:16;15.67;;;14.57;;
16442;SDS011;8331;51.654;14.376;2023-08-20T01:34:44;14.60;;;13.70;;
16442;SDS011;8331;51.654;14.376;2023-08-20T01:37:12;16.53;;;15.40;;
16442;SDS011;8331;51.654;14.376;2023-08-20T01:39:38;16.17;;;14.87;;
16442;SDS011;8331;51.654;14.376;2023-08-20T01:42:05;15.23;;;14.13;;
16442;SDS011;8331;51.654;14.376;2023-08-20T01:44:32;15.70;;;14.60;;
16442;SDS011;8331;51.654;14.376;2023-08-20T01:46:58;15.83;;;14.73;;
16442;SDS011;8331;51.654;14.376;2023-08-20T01:49:28;16.00;;;14.73;;
16442;SDS011;8331;51.654;14.376;2023-08-20T01:51:55;15.27;;;14.17;;
16442;SDS011;8331;51.654;14.376;2023-08-20T01:54:21;16.33;;;15.13;;
16442;SDS011;8331;51.654;14.376;2023-08-20T01:56:48;16.03;;;14.73;;
16442;SDS011;8331;51.654;14.376;2023-08-20T01:59:14;16.10;;;15.00;;
16442;SDS011;8331;51.654;14.376;2023-08-20T02:01:41;17.00;;;15.80;;
16442;SDS011;8331;51.654;14.376;2023-08-20T02:04:08;15.87;;;14.67;;
16442;SDS011;8331;51.654;14.376;2023-08-20T02:06:35;15.70;;;14.60;;
16442;SDS011;8331;51.654;14.376;2023-08-20T02:09:01;16.90;;;15.70;;
16442;SDS011;8331;51.654;14.376;2023-08-20T02:11:29;16.07;;;14.87;;
16442;SDS011;8331;51.654;14.376;2023-08-20T02:13:56;16.50;;;15.30;;
16442;SDS011;8331;51.654;14.376;2023-08-20T02:16:22;15.87;;;14.67;;
16442;SDS011;8331;51.654;14.376;2023-08-20T02:18:49;15.73;;;14.73;;
16442;SDS011;8331;51.654;14.376;2023-08-20T02:21:16;16.80;;;15.63;;
16442;SDS011;8331;51.654;14.376;2023-08-20T02:23:42;17.03;;;15.67;;
16442;SDS011;8331;51.654;14.376;2023-08-20T02:26:09;17.07;;;15.87;;
16442;SDS011;8331;51.654;14.376;2023-08-20T02:28:36;16.77;;;15.63;;
16442;SDS011;8331;51.654;14.376;2023-08-20T02:31:05;17.07;;;15.77;;
16442;SDS011;8331;51.654;14.376;2023-08-20T02:33:32;16.13;;;15.03;;
16442;SDS011;8331;51.654;14.376;2023-08-20T02:36:02;16.20;;;15.10;;
16442;SDS011;8331;51.654;14.376;2023-08-20T02:38:29;17.83;;;16.53;;
16442;SDS011;8331;51.654;14.376;2023-08-20T02:40:56;16.00;;;14.90;;
16442;SDS011;8331;51.654;14.376;2023-08-20T02:43:23;16.13;;;15.03;;
16442;SDS011;8331;51.654;14.376;2023-08-20T02:45:49;16.37;;;14.97;;
16442;SDS011;8331;51.654;14.376;2023-08-20T02:48:17;14.97;;;13.97;;
16442;SDS011;8331;51.654;14.376;2023-08-20T02:50:44;16.90;;;15.70;;
16442;SDS011;8331;51.654;14.376;2023-08-20T02:53:11;16.37;;;15.10;;
16442;SDS011;8331;51.654;14.376;2023-08-20T02:55:37;17.53;;;16.07;;
16442;SDS011;8331;51.654;14.376;2023-08-20T02:58:04;16.60;;;15.23;;
16442;SDS011;8331;51.654;14.376;2023-08-20T03:00:34;16.60;;;15.40;;
16442;SDS011;8331;51.654;14.376;2023-08-20T03:03:01;15.67;;;14.60;;
16442;SDS011;8331;51.654;14.376;2023-08-20T03:05:31;17.20;;;15.90;;
16442;SDS011;8331;51.654;14.376;2023-08-20T03:07:58;16.70;;;15.47;;
16442;SDS011;8331;51.654;14.376;2023-08-20T03:10:26;16.53;;;15.27;;
16442;SDS011;8331;51.654;14.376;2023-08-20T03:12:57;16.27;;;15.03;;
16442;SDS011;8331;51.654;14.376;2023-08-20T03:15:24;16.80;;;15.47;;
16442;SDS011;8331;51.654;14.376;2023-08-20T03:17:51;16.70;;;15.40;;
16442;SDS011;8331;51.654;14.376;2023-08-20T03:20:17;16.47;;;15.17;;
16442;SDS011;8331;51.654;14.376;2023-08-20T03:22:44;15.57;;;14.27;;
16442;SDS011;8331;51.654;14.376;2023-08-20T03:25:11;15.90;;;14.70;;
16442;SDS011;8331;51.654;14.376;2023-08-20T03:27:37;16.07;;;14.77;;
16442;SDS011;8331;51.654;14.376;2023-08-20T03:30:04;15.93;;;14.50;;
16442;SDS011;8331;51.654;14.376;2023-08-20T03:32:32;16.27;;;15.07;;
16442;SDS011;8331;51.654;14.376;2023-08-20T03:34:59;15.47;;;14.37;;
16442;SDS011;8331;51.654;14.376;2023-08-20T03:37:26;15.67;;;14.43;;
16442;SDS011;8331;51.654;14.376;2023-08-20T03:39:53;15.00;;;14.00;;
16442;SDS011;8331;51.654;14.376;2023-08-20T03:42:19;15.10;;;13.93;;
16442;SDS011;8331;51.654;14.376;2023-08-20T03:44:47;15.70;;;14.40;;
16442;SDS011;8331;51.654;14.376;2023-08-20T03:47:13;15.10;;;13.90;;
16442;SDS011;8331;51.654;14.376;2023-08-20T03:49:41;16.13;;;14.83;;
16442;SDS011;8331;51.654;14.376;2023-08-20T03:52:07;16.77;;;15.30;;
16442;SDS011;8331;51.654;14.376;2023-08-20T03:54:34;16.67;;;15.50;;
16442;SDS011;8331;51.654;14.376;2023-08-20T03:57:01;17.20;;;16.00;;
16442;SDS011;8331;51.654;14.376;2023-08-20T03:59:27;15.60;;;14.40;;
16442;SDS011;8331;51.654;14.376;2023-08-20T04:01:54;14.33;;;13.43;;
16442;SDS011;8331;51.654;14.376;2023-08-20T04:04:21;16.37;;;14.93;;
16442;SDS011;8331;51.654;14.376;2023-08-20T04:06:48;16.27;;;14.97;;
16442;SDS011;8331;51.654;14.376;2023-08-20T04:09:14;17.23;;;15.67;;
16442;SDS011;8331;51.654;14.376;2023-08-20T04:11:41;16.90;;;15.57;;
16442;SDS011;8331;51.654;14.376;2023-08-20T04:14:08;16.50;;;15.23;;
16442;SDS011;8331;51.654;14.376;2023-08-20T04:16:36;17.30;;;15.90;;
16442;SDS011;8331;51.654;14.376;2023-08-20T04:19:03;16.60;;;15.37;;
16442;SDS011;8331;51.654;14.376;2023-08-20T04:21:30;17.67;;;16.30;;
16442;SDS011;8331;51.654;14.376;2023-08-20T04:23:56;16.83;;;15.43;;
16442;SDS011;8331;51.654;14.376;2023-08-20T04:26:23;17.93;;;16.43;;
16442;SDS011;8331;51.654;14.376;2023-08-20T04:28:50;17.17;;;15.87;;
16442;SDS011;8331;51.654;14.376;2023-08-20T04:31:17;17.30;;;15.90;;
16442;SDS011;8331;51.654;14.376;2023-08-20T04:33:53;17.93;;;16.43;;
16442;SDS011;8331;51.654;14.376;2023-08-20T04:36:27;18.00;;;16.50;;
16442;SDS011;8331;51.654;14.376;2023-08-20T04:38:54;18.47;;;16.97;;
16442;SDS011;8331;51.654;14.376;2023-08-20T04:41:20;17.70;;;16.30;;
16442;SDS011;8331;51.654;14.376;2023-08-20T04:43:47;18.10;;;16.70;;
16442;SDS011;8331;51.654;14.376;2023-08-20T04:46:16;18.97;;;17.47;;
16442;SDS011;8331;51.654;14.376;2023-08-20T04:48:45;18.30;;;16.67;;
16442;SDS011;8331;51.654;14.376;2023-08-20T04:51:12;18.80;;;17.40;;
16442;SDS011;8331;51.654;14.376;2023-08-20T04:53:38;18.80;;;17.20;;
16442;SDS011;8331;51.654;14.376;2023-08-20T04:56:05;19.33;;;17.50;;
16442;SDS011;8331;51.654;14.376;2023-08-20T04:58:32;18.03;;;16.57;;
16442;SDS011;8331;51.654;14.376;2023-08-20T05:00:58;18.90;;;17.27;;
16442;SDS011;8331;51.654;14.376;2023-08-20T05:03:25;18.83;;;17.27;;
16442;SDS011;8331;51.654;14.376;2023-08-20T05:05:52;18.10;;;16.70;;
16442;SDS011;8331;51.654;14.376;2023-08-20T05:08:20;19.67;;;17.57;;
16442;SDS011;8331;51.654;14.376;2023-08-20T05:10:48;18.50;;;16.83;;
16442;SDS011;8331;51.654;14.376;2023-08-20T05:13:16;18.40;;;16.77;;
16442;SDS011;8331;51.654;14.376;2023-08-20T05:15:43;18.80;;;16.80;;
16442;SDS011;8331;51.654;14.376;2023-08-20T05:18:10;18.10;;;16.70;;
16442;SDS011;8331;51.654;14.376;2023-08-20T05:20:37;18.47;;;17.03;;
16442;SDS011;8331;51.654;14.376;2023-08-20T05:23:03;18.67;;;17.17;;
16442;SDS011;8331;51.654;14.376;2023-08-20T05:25:32;18.50;;;17.00;;
16442;SDS011;8331;51.654;14.376;2023-08-20T05:27:59;17.70;;;16.37;;
16442;SDS011;8331;51.654;14.376;2023-08-20T05:30:27;17.63;;;16.20;;
16442;SDS011;8331;51.654;14.376;2023-08-20T05:32:55;16.97;;;15.57;;
16442;SDS011;8331;51.654;14.376;2023-08-20T05:35:21;17.77;;;16.23;;
16442;SDS011;8331;51.654;14.376;2023-08-20T05:37:49;19.20;;;17.43;;
16442;SDS011;8331;51.654;14.376;2023-08-20T05:40:15;16.93;;;15.63;;
16442;SDS011;8331;51.654;14.376;2023-08-20T05:42:42;17.63;;;16.20;;
16442;SDS011;8331;51.654;14.376;2023-08-20T05:45:09;17.23;;;15.83;;
16442;SDS011;8331;51.654;14.376;2023-08-20T05:47:36;16.60;;;15.40;;
16442;SDS011;8331;51.654;14.376;2023-08-20T05:50:03;17.00;;;15.73;;
16442;SDS011;8331;51.654;14.376;2023-08-20T05:52:31;17.37;;;15.83;;
16442;SDS011;8331;51.654;14.376;2023-08-20T05:54:58;17.00;;;15.67;;
16442;SDS011;8331;51.654;14.376;2023-08-20T05:57:25;16.43;;;15.23;;
16442;SDS011;8331;51.654;14.376;2023-08-20T05:59:51;17.40;;;15.90;;
16442;SDS011;8331;51.654;14.376;2023-08-20T06:02:18;17.77;;;16.10;;
16442;SDS011;8331;51.654;14.376;2023-08-20T06:04:45;17.10;;;15.90;;
16442;SDS011;8331;51.654;14.376;2023-08-20T06:07:11;16.77;;;15.50;;
16442;SDS011;8331;51.654;14.376;2023-08-20T06:09:38;16.40;;;15.20;;
16442;SDS011;8331;51.654;14.376;2023-08-20T06:12:04;17.50;;;15.47;;
16442;SDS011;8331;51.654;14.376;2023-08-20T06:14:31;16.37;;;14.97;;
16442;SDS011;8331;51.654;14.376;2023-08-20T06:16:58;16.13;;;14.80;;
16442;SDS011;8331;51.654;14.376;2023-08-20T06:19:25;15.83;;;14.77;;
16442;SDS011;8331;51.654;14.376;2023-08-20T06:21:52;15.07;;;13.97;;
16442;SDS011;8331;51.654;14.376;2023-08-20T06:24:19;15.67;;;14.37;;
16442;SDS011;8331;51.654;14.376;2023-08-20T06:26:45;15.10;;;13.97;;
16442;SDS011;8331;51.654;14.376;2023-08-20T06:29:12;15.50;;;14.37;;
16442;SDS011;8331;51.654;14.376;2023-08-20T06:31:38;16.23;;;15.10;;
16442;SDS011;8331;51.654;14.376;2023-08-20T06:34:05;15.73;;;14.50;;
16442;SDS011;8331;51.654;14.376;2023-08-20T06:36:32;15.93;;;14.53;;
16442;SDS011;8331;51.654;14.376;2023-08-20T06:38:58;15.43;;;14.30;;
16442;SDS011;8331;51.654;14.376;2023-08-20T06:41:25;15.53;;;14.43;;
16442;SDS011;8331;51.654;14.376;2023-08-20T06:43:51;15.03;;;13.83;;
16442;SDS011;8331;51.654;14.376;2023-08-20T06:46:18;14.27;;;13.10;;
16442;SDS011;8331;51.654;14.376;2023-08-20T06:48:45;15.50;;;14.40;;
16442;SDS011;8331;51.654;14.376;2023-08-20T06:51:12;14.80;;;13.63;;
16442;SDS011;8331;51.654;14.376;2023-08-20T06:53:39;14.10;;;13.00;;
16442;SDS011;8331;51.654;14.376;2023-08-20T06:56:09;14.33;;;13.30;;
16442;SDS011;8331;51.654;14.376;2023-08-20T06:58:38;13.87;;;12.80;;
16442;SDS011;8331;51.654;14.376;2023-08-20T07:01:05;14.80;;;13.60;;
16442;SDS011;8331;51.654;14.376;2023-08-20T07:03:38;14.07;;;12.80;;
16442;SDS011;8331;51.654;14.376;2023-08-20T07:06:06;14.10;;;13.00;;
16442;SDS011;8331;51.654;14.376;2023-08-20T07:08:32;13.67;;;12.67;;
16442;SDS011;8331;51.654;14.376;2023-08-20T07:10:59;14.00;;;13.10;;
16442;SDS011;8331;51.654;14.376;2023-08-20T07:13:26;13.50;;;12.57;;
16442;SDS011;8331;51.654;14.376;2023-08-20T07:15:52;14.13;;;13.00;;
16442;SDS011;8331;51.654;14.376;2023-08-20T07:18:19;14.23;;;13.23;;
16442;SDS011;8331;51.654;14.376;2023-08-20T07:20:46;14.77;;;13.60;;
16442;SDS011;8331;51.654;14.376;2023-08-20T07:23:13;14.37;;;12.93;;
16442;SDS011;8331;51.654;14.376;2023-08-20T07:25:40;14.20;;;12.67;;
16442;SDS011;8331;51.654;14.376;2023-08-20T07:28:07;13.47;;;12.47;;
16442;SDS011;8331;51.654;14.376;2023-08-20T07:30:34;13.83;;;12.93;;
16442;SDS011;8331;51.654;14.376;2023-08-20T07:33:01;12.50;;;11.57;;
16442;SDS011;8331;51.654;14.376;2023-08-20T07:35:31;12.77;;;11.77;;
16442;SDS011;8331;51.654;14.376;2023-08-20T07:37:58;13.50;;;12.47;;
16442;SDS011;8331;51.654;14.376;2023-08-20T07:40:25;12.53;;;11.53;;
16442;SDS011;8331;51.654;14.376;2023-08-20T07:42:51;13.10;;;12.20;;
16442;SDS011;8331;51.654;14.376;2023-08-20T07:45:18;12.77;;;11.53;;
16442;SDS011;8331;51.654;14.376;2023-08-20T07:47:45;13.10;;;11.87;;
16442;SDS011;8331;51.654;14.376;2023-08-20T07:50:11;13.33;;;12.27;;
16442;SDS011;8331;51.654;14.376;2023-08-20T07:52:38;13.20;;;12.20;;
16442;SDS011;8331;51.654;14.376;2023-08-20T07:55:05;13.60;;;12.50;;
16442;SDS011;8331;51.654;14.376;2023-08-20T07:57:31;12.97;;;12.10;;
16442;SDS011;8331;51.654;14.376;2023-08-20T07:59:59;13.13;;;12.10;;
16442;SDS011;8331;51.654;14.376;2023-08-20T08:02:25;12.93;;;11.67;;
16442;SDS011;8331;51.654;14.376;2023-08-20T08:04:52;12.47;;;11.47;;
16442;SDS011;8331;51.654;14.376;2023-08-20T08:07:18;12.27;;;11.30;;
16442;SDS011;8331;51.654;14.376;2023-08-20T08:09:45;12.13;;;11.03;;
16442;SDS011;8331;51.654;14.376;2023-08-20T08:12:11;12.73;;;11.83;;
16442;SDS011;8331;51.654;14.376;2023-08-20T08:14:38;13.33;;;12.00;;
16442;SDS011;8331;51.654;14.376;2023-08-20T08:17:05;12.87;;;11.87;;
16442;SDS011;8331;51.654;14.376;2023-08-20T08:19:32;12.73;;;11.70;;
16442;SDS011;8331;51.654;14.376;2023-08-20T08:21:58;12.93;;;12.03;;
16442;SDS011;8331;51.654;14.376;2023-08-20T08:24:26;13.33;;;12.00;;
16442;SDS011;8331;51.654;14.376;2023-08-20T08:26:53;10.73;;;9.93;;
16442;SDS011;8331;51.654;14.376;2023-08-20T08:29:19;11.60;;;10.70;;
16442;SDS011;8331;51.654;14.376;2023-08-20T08:31:46;11.97;;;11.07;;
16442;SDS011;8331;51.654;14.376;2023-08-20T08:34:12;11.73;;;10.80;;
16442;SDS011;8331;51.654;14.376;2023-08-20T08:36:40;11.97;;;10.87;;
16442;SDS011;8331;51.654;14.376;2023-08-20T08:39:07;12.57;;;11.67;;
16442;SDS011;8331;51.654;14.376;2023-08-20T08:41:34;10.90;;;10.20;;
16442;SDS011;8331;51.654;14.376;2023-08-20T08:44:02;11.43;;;10.50;;
16442;SDS011;8331;51.654;14.376;2023-08-20T08:46:29;11.40;;;10.60;;
16442;SDS011;8331;51.654;14.376;2023-08-20T08:48:56;11.43;;;10.60;;
16442;SDS011;8331;51.654;14.376;2023-08-20T08:51:23;12.60;;;11.63;;
16442;SDS011;8331;51.654;14.376;2023-08-20T08:53:50;12.93;;;11.53;;
16442;SDS011;8331;51.654;14.376;2023-08-20T08:56:16;12.03;;;11.23;;
16442;SDS011;8331;51.654;14.376;2023-08-20T08:58:43;11.50;;;10.57;;
16442;SDS011;8331;51.654;14.376;2023-08-20T09:01:10;11.93;;;10.87;;
16442;SDS011;8331;51.654;14.376;2023-08-20T09:03:36;12.60;;;10.97;;
16442;SDS011;8331;51.654;14.376;2023-08-20T09:06:07;11.30;;;10.40;;
16442;SDS011;8331;51.654;14.376;2023-08-20T09:08:34;11.23;;;10.43;;
16442;SDS011;8331;51.654;14.376;2023-08-20T09:11:01;11.60;;;10.70;;
16442;SDS011;8331;51.654;14.376;2023-08-20T09:13:38;10.87;;;10.07;;
16442;SDS011;8331;51.654;14.376;2023-08-20T09:16:05;12.07;;;11.07;;
16442;SDS011;8331;51.654;14.376;2023-08-20T09:18:37;11.40;;;10.40;;
16442;SDS011;8331;51.654;14.376;2023-08-20T09:21:05;11.37;;;10.50;;
16442;SDS011;8331;51.654;14.376;2023-08-20T09:23:32;11.70;;;10.67;;
16442;SDS011;8331;51.654;14.376;2023-08-20T09:26:00;11.00;;;10.30;;
16442;SDS011;8331;51.654;14.376;2023-08-20T09:28:27;11.33;;;10.33;;
16442;SDS011;8331;51.654;14.376;2023-08-20T09:30:54;11.13;;;10.23;;
16442;SDS011;8331;51.654;14.376;2023-08-20T09:33:21;11.27;;;10.30;;
16442;SDS011;8331;51.654;14.376;2023-08-20T09:35:48;10.27;;;9.57;;
16442;SDS011;8331;51.654;14.376;2023-08-20T09:38:16;11.23;;;10.07;;
16442;SDS011;8331;51.654;14.376;2023-08-20T09:40:45;11.00;;;10.03;;
16442;SDS011;8331;51.654;14.376;2023-08-20T09:43:12;11.20;;;10.17;;
16442;SDS011;8331;51.654;14.376;2023-08-20T09:45:40;10.93;;;10.03;;
16442;SDS011;8331;51.654;14.376;2023-08-20T09:48:08;10.95;;;10.15;;
16442;SDS011;8331;51.654;14.376;2023-08-20T09:50:35;10.75;;;9.95;;
16442;SDS011;8331;51.654;14.376;2023-08-20T09:53:06;11.13;;;10.17;;
16442;SDS011;8331;51.654;14.376;2023-08-20T09:55:38;11.93;;;10.93;;
16442;SDS011;8331;51.654;14.376;2023-08-20T09:58:07;10.25;;;9.57;;
16442;SDS011;8331;51.654;14.376;2023-08-20T10:00:34;10.27;;;9.57;;
16442;SDS011;8331;51.654;14.376;2023-08-20T10:03:01;10.73;;;9.88;;
16442;SDS011;8331;51.654;14.376;2023-08-20T10:05:28;9.82;;;9.23;;
16442;SDS011;8331;51.654;14.376;2023-08-20T10:07:55;11.27;;;10.38;;
16442;SDS011;8331;51.654;14.376;2023-08-20T10:10:24;10.67;;;9.70;;
16442;SDS011;8331;51.654;14.376;2023-08-20T10:12:52;10.80;;;9.70;;
16442;SDS011;8331;51.654;14.376;2023-08-20T10:15:18;11.13;;;10.32;;
16442;SDS011;8331;51.654;14.376;2023-08-20T10:17:45;10.90;;;10.10;;
16442;SDS011;8331;51.654;14.376;2023-08-20T10:20:13;10.60;;;9.80;;
16442;SDS011;8331;51.654;14.376;2023-08-20T10:22:41;11.70;;;10.77;;
16442;SDS011;8331;51.654;14.376;2023-08-20T10:25:08;10.43;;;9.82;;
16442;SDS011;8331;51.654;14.376;2023-08-20T10:27:36;10.40;;;9.52;;
16442;SDS011;8331;51.654;14.376;2023-08-20T10:30:11;10.32;;;9.57;;
16442;SDS011;8331;51.654;14.376;2023-08-20T10:32:45;10.93;;;10.18;;
16442;SDS011;8331;51.654;14.376;2023-08-20T10:35:14;11.05;;;10.07;;
16442;SDS011;8331;51.654;14.376;2023-08-20T10:38:00;10.75;;;10.05;;
16442;SDS011;8331;51.654;14.376;2023-08-20T10:41:09;10.65;;;9.70;;
16442;SDS011;8331;51.654;14.376;2023-08-20T10:48:35;9.55;;;8.85;;
16442;SDS011;8331;51.654;14.376;2023-08-20T10:51:45;9.80;;;9.00;;
16442;SDS011;8331;51.654;14.376;2023-08-20T11:01:36;9.80;;;9.00;;
16442;SDS011;8331;51.654;14.376;2023-08-20T11:04:03;8.80;;;8.23;;
16442;SDS011;8331;51.654;14.376;2023-08-20T11:06:33;9.32;;;8.73;;
16442;SDS011;8331;51.654;14.376;2023-08-20T11:09:00;10.55;;;9.02;;
16442;SDS011;8331;51.654;14.376;2023-08-20T11:11:27;9.13;;;8.45;;
16442;SDS011;8331;51.654;14.376;2023-08-20T11:13:53;23.45;;;9.88;;
16442;SDS011;8331;51.654;14.376;2023-08-20T11:16:20;10.57;;;9.23;;
16442;SDS011;8331;51.654;14.376;2023-08-20T11:18:46;9.65;;;8.95;;
16442;SDS011;8331;51.654;14.376;2023-08-20T11:21:13;9.95;;;9.35;;
16442;SDS011;8331;51.654;14.376;2023-08-20T11:23:40;10.57;;;9.63;;
16442;SDS011;8331;51.654;14.376;2023-08-20T11:26:09;9.60;;;8.80;;
16442;SDS011;8331;51.654;14.376;2023-08-20T11:28:35;10.02;;;9.02;;
16442;SDS011;8331;51.654;14.376;2023-08-20T11:31:02;9.07;;;8.57;;
16442;SDS011;8331;51.654;14.376;2023-08-20T11:33:29;9.30;;;8.52;;
16442;SDS011;8331;51.654;14.376;2023-08-20T11:35:55;9.02;;;8.52;;
16442;SDS011;8331;51.654;14.376;2023-08-20T11:38:23;9.10;;;8.50;;
16442;SDS011;8331;51.654;14.376;2023-08-20T11:40:50;9.07;;;8.43;;
16442;SDS011;8331;51.654;14.376;2023-08-20T11:43:18;9.38;;;8.77;;
16442;SDS011;8331;51.654;14.376;2023-08-20T11:45:45;9.48;;;8.82;;
16442;SDS011;8331;51.654;14.376;2023-08-20T11:48:12;9.32;;;8.60;;
16442;SDS011;8331;51.654;14.376;2023-08-20T11:50:38;9.57;;;8.75;;
16442;SDS011;8331;51.654;14.376;2023-08-20T11:53:05;8.90;;;8.30;;
16442;SDS011;8331;51.654;14.376;2023-08-20T11:55:31;9.52;;;8.75;;
16442;SDS011;8331;51.654;14.376;2023-08-20T11:57:58;8.27;;;7.75;;
16442;SDS011;8331;51.654;14.376;2023-08-20T12:00:25;8.98;;;8.18;;
16442;SDS011;8331;51.654;14.376;2023-08-20T12:02:53;8.93;;;8.07;;
16442;SDS011;8331;51.654;14.376;2023-08-20T12:05:22;8.90;;;8.30;;
16442;SDS011;8331;51.654;14.376;2023-08-20T12:08:00;8.75;;;8.15;;
16442;SDS011;8331;51.654;14.376;2023-08-20T12:10:27;8.50;;;7.80;;
16442;SDS011;8331;51.654;14.376;2023-08-20T12:12:55;9.20;;;8.32;;
16442;SDS011;8331;51.654;14.376;2023-08-20T12:15:22;8.35;;;7.65;;
16442;SDS011;8331;51.654;14.376;2023-08-20T12:18:02;7.88;;;7.43;;
16442;SDS011;8331;51.654;14.376;2023-08-20T12:20:32;7.93;;;7.43;;
16442;SDS011;8331;51.654;14.376;2023-08-20T12:22:59;8.55;;;7.75;;
16442;SDS011;8331;51.654;14.376;2023-08-20T12:25:29;8.68;;;7.60;;
16442;SDS011;8331;51.654;14.376;2023-08-20T12:27:55;8.10;;;7.50;;
16442;SDS011;8331;51.654;14.376;2023-08-20T12:30:22;8.52;;;7.93;;
16442;SDS011;8331;51.654;14.376;2023-08-20T12:32:49;8.20;;;7.60;;
16442;SDS011;8331;51.654;14.376;2023-08-20T12:35:15;8.48;;;7.78;;
16442;SDS011;8331;51.654;14.376;2023-08-20T12:37:42;7.93;;;7.43;;
16442;SDS011;8331;51.654;14.376;2023-08-20T12:40:09;8.10;;;7.50;;
16442;SDS011;8331;51.654;14.376;2023-08-20T12:42:37;7.60;;;7.00;;
16442;SDS011;8331;51.654;14.376;2023-08-20T12:45:07;8.02;;;7.30;;
16442;SDS011;8331;51.654;14.376;2023-08-20T12:47:34;7.28;;;6.70;;
16442;SDS011;8331;51.654;14.376;2023-08-20T12:50:01;7.78;;;7.28;;
16442;SDS011;8331;51.654;14.376;2023-08-20T12:52:31;6.93;;;6.35;;
16442;SDS011;8331;51.654;14.376;2023-08-20T12:54:58;6.85;;;6.25;;
16442;SDS011;8331;51.654;14.376;2023-08-20T12:57:24;6.38;;;5.97;;
16442;SDS011;8331;51.654;14.376;2023-08-20T12:59:51;6.70;;;6.13;;
16442;SDS011;8331;51.654;14.376;2023-08-20T13:02:19;6.90;;;6.32;;
16442;SDS011;8331;51.654;14.376;2023-08-20T13:04:46;6.70;;;6.03;;
16442;SDS011;8331;51.654;14.376;2023-08-20T13:07:13;5.47;;;5.18;;
16442;SDS011;8331;51.654;14.376;2023-08-20T13:09:39;6.05;;;5.55;;
16442;SDS011;8331;51.654;14.376;2023-08-20T13:12:06;5.38;;;4.95;;
16442;SDS011;8331;51.654;14.376;2023-08-20T13:14:41;5.57;;;5.18;;
16442;SDS011;8331;51.654;14.376;2023-08-20T13:17:08;6.35;;;5.68;;
16442;SDS011;8331;51.654;14.376;2023-08-20T13:19:35;5.97;;;5.60;;
16442;SDS011;8331;51.654;14.376;2023-08-20T13:22:02;6.15;;;5.75;;
16442;SDS011;8331;51.654;14.376;2023-08-20T13:24:28;6.40;;;5.90;;
16442;SDS011;8331;51.654;14.376;2023-08-20T13:26:55;7.38;;;6.88;;
16442;SDS011;8331;51.654;14.376;2023-08-20T13:29:21;7.50;;;6.80;;
16442;SDS011;8331;51.654;14.376;2023-08-20T13:31:48;7.90;;;7.18;;
16442;SDS011;8331;51.654;14.376;2023-08-20T13:34:14;7.15;;;6.75;;
16442;SDS011;8331;51.654;14.376;2023-08-20T13:36:41;7.18;;;6.57;;
16442;SDS011;8331;51.654;14.376;2023-08-20T13:39:08;7.32;;;6.78;;
16442;SDS011;8331;51.654;14.376;2023-08-20T13:41:34;7.10;;;6.60;;
16442;SDS011;8331;51.654;14.376;2023-08-20T13:44:01;7.28;;;6.78;;
16442;SDS011;8331;51.654;14.376;2023-08-20T13:46:28;7.68;;;7.05;;
16442;SDS011;8331;51.654;14.376;2023-08-20T13:48:55;7.63;;;6.97;;
16442;SDS011;8331;51.654;14.376;2023-08-20T13:51:22;7.10;;;6.70;;
16442;SDS011;8331;51.654;14.376;2023-08-20T13:53:48;6.82;;;6.32;;
16442;SDS011;8331;51.654;14.376;2023-08-20T13:56:15;6.45;;;5.97;;
16442;SDS011;8331;51.654;14.376;2023-08-20T13:58:42;7.38;;;6.30;;
16442;SDS011;8331;51.654;14.376;2023-08-20T14:01:08;6.82;;;6.38;;
16442;SDS011;8331;51.654;14.376;2023-08-20T14:03:35;7.10;;;6.45;;
16442;SDS011;8331;51.654;14.376;2023-08-20T14:06:02;7.28;;;6.68;;
16442;SDS011;8331;51.654;14.376;2023-08-20T14:08:29;6.47;;;6.07;;
16442;SDS011;8331;51.654;14.376;2023-08-20T14:10:56;6.82;;;6.22;;
16442;SDS011;8331;51.654;14.376;2023-08-20T14:13:22;6.47;;;6.07;;
16442;SDS011;8331;51.654;14.376;2023-08-20T14:15:49;6.45;;;5.95;;
16442;SDS011;8331;51.654;14.376;2023-08-20T14:18:16;6.65;;;6.25;;
16442;SDS011;8331;51.654;14.376;2023-08-20T14:20:42;6.85;;;6.25;;
16442;SDS011;8331;51.654;14.376;2023-08-20T14:23:09;6.72;;;6.22;;
16442;SDS011;8331;51.654;14.376;2023-08-20T14:25:36;6.57;;;6.18;;
16442;SDS011;8331;51.654;14.376;2023-08-20T14:28:02;6.68;;;6.20;;
16442;SDS011;8331;51.654;14.376;2023-08-20T14:30:29;6.68;;;6.00;;
16442;SDS011;8331;51.654;14.376;2023-08-20T14:32:56;6.47;;;5.90;;
16442;SDS011;8331;51.654;14.376;2023-08-20T14:35:22;6.63;;;6.13;;
16442;SDS011;8331;51.654;14.376;2023-08-20T14:37:50;7.07;;;6.47;;
16442;SDS011;8331;51.654;14.376;2023-08-20T14:40:18;6.85;;;6.13;;
16442;SDS011;8331;51.654;14.376;2023-08-20T14:42:44;6.97;;;6.05;;
16442;SDS011;8331;51.654;14.376;2023-08-20T14:45:11;7.25;;;6.28;;
16442;SDS011;8331;51.654;14.376;2023-08-20T14:47:38;6.55;;;6.00;;
16442;SDS011;8331;51.654;14.376;2023-08-20T14:50:04;7.57;;;6.13;;
16442;SDS011;8331;51.654;14.376;2023-08-20T14:52:31;9.75;;;6.32;;